Terminal Aerodrome Forecast
Issued by NWS

Home | Current Version | Previous Version | Text Only | Print | Product List | Glossary On
Versions: 1 2 3 4 5 6 7 8 9 10 11 12
000
FTUS45 KTFX 281100
TAFGTF
TAF
KGTF 281120Z 2812/2912 21008KT P6SM SKC
     FM281800 24015G25KT P6SM SCT120
     FM290200 32015KT P6SM VCSH SCT060 BKN080
     FM290600 33010KT P6SM SCT070=

USA.gov is the U.S. government's official web portal to all federal, state and local government web resources and services.